Time;durP1;ratioP1;P1;durP2;ratioP2;P2;SDS_P1;SDS_P2;PMS_P1;PMS_P2;Temp;Humidity;BMP_temperature;BMP_pressure;BME280_temperature;BME280_humidity;BME280_pressure;Samples;Min_cycle;Max_cycle;Signal;HPM_P1;HPM_P2
2023/04/10 00:02:17;;;;;;;14.00;8.50;;;11.30;99.90;;;;;;7301579;19;20195;-76
2023/04/10 00:04:43;;;;;;;14.80;8.73;;;11.30;99.90;;;;;;7301586;19;20541;-77
2023/04/10 00:07:09;;;;;;;14.97;8.63;;;11.30;99.90;;;;;;7288820;19;20195;-77
2023/04/10 00:09:35;;;;;;;15.60;9.00;;;11.30;99.90;;;;;;7288132;19;20616;-77
2023/04/10 00:12:01;;;;;;;15.97;8.53;;;11.30;99.90;;;;;;7287297;19;20201;-77
2023/04/10 00:14:26;;;;;;;15.03;8.90;;;11.30;99.90;;;;;;7287001;19;20271;-77
2023/04/10 00:16:52;;;;;;;15.57;9.57;;;11.20;99.90;;;;;;7287431;19;20177;-77
2023/04/10 00:19:18;;;;;;;17.33;9.33;;;11.10;99.90;;;;;;7301218;19;20199;-76
2023/04/10 00:21:43;;;;;;;16.17;9.20;;;11.10;99.90;;;;;;7304753;19;20182;-77
2023/04/10 00:24:09;;;;;;;16.80;8.70;;;11.10;99.90;;;;;;7286890;19;20232;-77
2023/04/10 00:26:35;;;;;;;17.50;9.53;;;11.00;99.90;;;;;;7287158;19;20584;-77
2023/04/10 00:29:02;;;;;;;17.83;9.80;;;11.00;99.90;;;;;;7287818;19;20189;-77
2023/04/10 00:31:28;;;;;;;16.77;9.23;;;10.90;99.90;;;;;;7285613;19;20185;-77
2023/04/10 00:33:54;;;;;;;16.10;9.83;;;10.80;99.90;;;;;;7287938;19;20190;-77
2023/04/10 00:36:20;;;;;;;17.43;9.97;;;10.80;99.90;;;;;;7286714;19;20263;-76
2023/04/10 00:38:46;;;;;;;17.57;10.27;;;10.80;99.90;;;;;;7308931;19;20576;-77
2023/04/10 00:41:12;;;;;;;17.10;9.87;;;10.80;99.90;;;;;;7288278;19;20680;-77
2023/04/10 00:43:37;;;;;;;15.77;9.13;;;10.80;99.90;;;;;;7286074;19;20223;-77
2023/04/10 00:46:05;;;;;;;16.70;9.10;;;10.70;99.90;;;;;;7287113;19;20189;-77
2023/04/10 00:48:32;;;;;;;16.17;9.27;;;10.60;99.90;;;;;;7286327;19;20693;-77
2023/04/10 00:50:59;;;;;;;17.57;9.03;;;10.70;99.90;;;;;;7286415;19;20203;-77
2023/04/10 00:53:25;;;;;;;15.87;8.30;;;10.60;99.90;;;;;;7288416;19;20193;-76
2023/04/10 00:55:52;;;;;;;15.53;8.63;;;10.60;99.90;;;;;;7285138;19;20560;-77
2023/04/10 00:58:17;;;;;;;15.03;9.07;;;10.60;99.90;;;;;;7303116;19;20189;-76
2023/04/10 01:00:46;;;;;;;16.83;8.60;;;10.60;99.90;;;;;;7309497;19;20189;-77
2023/04/10 01:03:14;;;;;;;14.87;8.30;;;10.50;99.90;;;;;;7284809;19;20193;-78
2023/04/10 01:06:18;;;;;;;13.60;8.07;;;10.60;99.90;;;;;;7284948;19;20244;-77
2023/04/10 01:08:59;;;;;;;14.63;8.10;;;10.50;99.90;;;;;;7183845;19;2004683;-77
2023/04/10 01:11:47;;;;;;;14.03;8.23;;;10.50;99.90;;;;;;7184598;19;2005597;-77
2023/04/10 01:14:40;;;;;;;14.43;8.07;;;10.60;99.90;;;;;;7286127;19;20665;-77
2023/04/10 01:17:20;;;;;;;14.07;8.17;;;10.50;99.90;;;;;;7182674;19;2006396;-77
2023/04/10 01:19:49;;;;;;;14.20;8.17;;;10.50;99.90;;;;;;7286498;19;20191;-77
2023/04/10 01:22:16;;;;;;;13.60;7.80;;;10.50;99.90;;;;;;7288044;19;20186;-77
2023/04/10 01:25:14;;;;;;;15.70;8.10;;;10.40;99.90;;;;;;7283826;19;20201;-76
2023/04/10 01:27:57;;;;;;;14.60;8.13;;;10.40;99.90;;;;;;7184299;19;2004463;-77
2023/04/10 01:30:23;;;;;;;13.60;8.33;;;10.30;99.90;;;;;;7183789;19;2006459;-77
2023/04/10 01:32:52;;;;;;;14.00;8.00;;;10.30;99.90;;;;;;7286154;19;20188;-77
2023/04/10 01:35:18;;;;;;;12.87;7.87;;;10.30;99.90;;;;;;7308431;19;20660;-76
2023/04/10 01:37:47;;;;;;;14.83;8.60;;;10.40;99.90;;;;;;7305746;19;20213;-77
2023/04/10 01:40:14;;;;;;;13.33;8.07;;;10.50;99.90;;;;;;7286911;19;20193;-77
2023/04/10 01:42:50;;;;;;;13.70;8.03;;;10.30;99.90;;;;;;7285346;19;20189;-77
2023/04/10 01:45:19;;;;;;;14.07;8.63;;;10.40;99.90;;;;;;7284877;19;20197;-77
2023/04/10 01:47:48;;;;;;;13.13;8.00;;;10.40;99.90;;;;;;7284483;19;20196;-76
2023/04/10 01:50:15;;;;;;;13.63;7.80;;;10.40;99.90;;;;;;7295646;19;20192;-77
2023/04/10 01:52:42;;;;;;;14.13;8.33;;;10.40;99.90;;;;;;7284456;19;20305;-77
2023/04/10 01:55:17;;;;;;;14.07;7.50;;;10.40;99.90;;;;;;7284369;19;20265;-77
2023/04/10 01:57:49;;;;;;;14.07;8.23;;;10.40;99.90;;;;;;7270313;19;20188;-77
2023/04/10 02:00:16;;;;;;;16.43;8.97;;;10.40;99.90;;;;;;7306810;19;20194;-77
2023/04/10 02:02:43;;;;;;;16.30;8.80;;;10.30;99.90;;;;;;7284263;19;20263;-77
2023/04/10 02:05:09;;;;;;;14.63;8.27;;;10.40;99.90;;;;;;7283878;19;20186;-77
2023/04/10 02:07:55;;;;;;;14.38;8.77;;;10.40;99.90;;;;;;7280058;19;20684;-77
2023/04/10 02:10:35;;;;;;;13.37;8.47;;;10.40;99.90;;;;;;7261864;19;20529;-77
2023/04/10 02:13:05;;;;;;;13.40;7.70;;;10.40;99.90;;;;;;7284160;19;20268;-76
2023/04/10 02:15:33;;;;;;;12.57;7.70;;;10.50;99.90;;;;;;7285007;19;20786;-77
2023/04/10 02:18:03;;;;;;;13.03;7.47;;;10.40;99.90;;;;;;7283429;19;20207;-77
2023/04/10 02:20:30;;;;;;;14.60;8.40;;;10.30;99.90;;;;;;7284143;19;20193;-77
2023/04/10 02:23:02;;;;;;;11.93;7.30;;;10.40;99.90;;;;;;7284726;19;20259;-77
2023/04/10 02:25:33;;;;;;;15.90;8.00;;;10.40;99.90;;;;;;7283087;19;20193;-78
2023/04/10 02:28:06;;;;;;;14.03;7.63;;;10.40;99.90;;;;;;7283893;19;20197;-77
2023/04/10 02:30:32;;;;;;;12.50;7.43;;;10.40;99.90;;;;;;7282606;19;20652;-78
2023/04/10 02:32:59;;;;;;;13.97;7.70;;;10.40;99.90;;;;;;7282813;19;20257;-77
2023/04/10 02:35:25;;;;;;;15.63;8.43;;;10.40;99.90;;;;;;7283061;19;20193;-77
2023/04/10 02:37:51;;;;;;;13.10;7.77;;;10.40;99.90;;;;;;7281666;19;20193;-77
2023/04/10 02:40:17;;;;;;;14.20;7.37;;;10.50;99.90;;;;;;7305793;19;20197;-77
2023/04/10 02:42:53;;;;;;;13.37;7.60;;;10.50;99.90;;;;;;7180757;19;2004783;-76
2023/04/10 02:45:20;;;;;;;13.03;7.30;;;10.50;99.90;;;;;;7283145;19;20236;-77
2023/04/10 02:47:46;;;;;;;12.97;7.47;;;10.40;99.90;;;;;;7304436;19;20208;-77
2023/04/10 02:50:11;;;;;;;13.87;7.27;;;10.50;99.90;;;;;;7282129;19;20652;-77
2023/04/10 02:52:40;;;;;;;15.07;7.60;;;10.40;99.90;;;;;;7282008;19;20697;-77
2023/04/10 02:55:06;;;;;;;15.20;7.30;;;10.30;99.90;;;;;;7284014;19;20205;-78
2023/04/10 02:57:35;;;;;;;13.13;7.17;;;10.20;99.90;;;;;;7282662;19;20207;-77
2023/04/10 03:00:03;;;;;;;13.00;7.47;;;10.20;99.90;;;;;;7283259;19;20641;-77
2023/04/10 03:02:34;;;;;;;12.23;7.00;;;10.10;99.90;;;;;;7282013;19;20197;-77
2023/04/10 03:05:10;;;;;;;14.60;6.80;;;10.00;99.90;;;;;;7281438;19;20213;-77
2023/04/10 03:07:36;;;;;;;14.30;7.50;;;10.20;99.90;;;;;;7280838;19;20201;-77
2023/04/10 03:10:05;;;;;;;14.33;7.13;;;10.30;99.90;;;;;;7280712;19;20193;-77
2023/04/10 03:12:32;;;;;;;13.40;7.47;;;10.20;99.90;;;;;;7283043;19;20185;-77
2023/04/10 03:14:58;;;;;;;12.63;6.80;;;10.20;99.90;;;;;;7281817;19;20572;-77
2023/04/10 03:17:23;;;;;;;15.50;6.87;;;10.30;99.90;;;;;;7281363;19;20182;-77
2023/04/10 03:19:50;;;;;;;12.77;6.50;;;10.40;99.90;;;;;;7285652;19;20189;-77
2023/04/10 03:22:16;;;;;;;13.63;7.33;;;10.40;99.90;;;;;;7312040;19;20715;-77
2023/04/10 03:24:42;;;;;;;15.70;7.70;;;10.40;99.90;;;;;;7289593;19;20279;-77
2023/04/10 03:27:07;;;;;;;12.20;7.00;;;10.50;99.90;;;;;;7288493;19;20250;-77
2023/04/10 03:29:33;;;;;;;12.77;6.67;;;10.60;99.90;;;;;;7288535;19;20196;-77
2023/04/10 03:31:59;;;;;;;12.87;7.07;;;10.60;99.90;;;;;;7287784;19;20186;-77
2023/04/10 03:34:25;;;;;;;12.90;7.23;;;10.70;99.90;;;;;;7288580;19;20262;-77
2023/04/10 03:36:51;;;;;;;11.33;6.67;;;10.70;99.90;;;;;;7289173;19;20186;-77
2023/04/10 03:39:17;;;;;;;13.03;6.60;;;10.70;99.90;;;;;;7309140;19;20196;-77
2023/04/10 03:41:43;;;;;;;13.57;7.27;;;10.70;99.90;;;;;;7289281;19;20182;-77
2023/04/10 03:44:08;;;;;;;12.53;6.60;;;10.70;99.90;;;;;;7289100;19;20666;-77
2023/04/10 03:46:34;;;;;;;13.30;6.90;;;10.60;99.90;;;;;;7288905;19;20190;-77
2023/04/10 03:49:00;;;;;;;12.00;6.73;;;10.50;99.90;;;;;;7288836;19;20193;-76
2023/04/10 03:51:26;;;;;;;12.70;7.20;;;10.50;99.90;;;;;;7288244;19;20188;-75
2023/04/10 03:53:52;;;;;;;13.00;6.83;;;10.50;99.90;;;;;;7290215;19;20200;-77
2023/04/10 03:56:18;;;;;;;13.00;7.40;;;10.30;99.90;;;;;;7309939;19;20620;-76
2023/04/10 03:58:45;;;;;;;12.03;6.80;;;10.20;99.90;;;;;;7308404;19;20696;-77
2023/04/10 04:01:12;;;;;;;14.37;7.03;;;10.20;99.90;;;;;;7288944;19;20524;-77
2023/04/10 04:03:54;;;;;;;11.50;6.40;;;10.10;99.90;;;;;;7184338;19;2004831;-77
2023/04/10 04:06:47;;;;;;;12.87;6.53;;;10.20;99.90;;;;;;7289231;19;20554;-77
2023/04/10 04:09:19;;;;;;;12.57;6.97;;;10.30;99.90;;;;;;7278935;19;20648;-76
2023/04/10 04:12:03;;;;;;;12.60;6.97;;;10.30;99.90;;;;;;7285812;19;20192;-77
2023/04/10 04:14:58;;;;;;;12.43;6.43;;;10.20;99.90;;;;;;7185049;19;2004834;-77
2023/04/10 04:17:24;;;;;;;11.23;6.90;;;10.20;99.90;;;;;;7287613;19;20184;-77
2023/04/10 04:20:08;;;;;;;11.43;6.70;;;10.10;99.90;;;;;;7287538;19;20655;-77
2023/04/10 04:22:52;;;;;;;14.83;6.97;;;10.20;99.90;;;;;;7266158;19;20205;-77
2023/04/10 04:25:57;;;;;;;14.70;7.13;;;10.10;99.90;;;;;;7183507;19;2004571;-77
2023/04/10 04:28:46;;;;;;;12.47;6.17;;;10.10;99.90;;;;;;7288379;19;20208;-77
2023/04/10 04:31:31;;;;;;;13.63;6.63;;;10.20;99.90;;;;;;7183092;19;2004642;-77
2023/04/10 04:34:05;;;;;;;13.47;7.27;;;10.10;99.90;;;;;;7287146;19;20180;-78
2023/04/10 04:37:05;;;;;;;12.17;6.53;;;10.10;99.90;;;;;;7183201;19;2004412;-78
2023/04/10 04:39:45;;;;;;;12.17;6.73;;;10.20;99.90;;;;;;7286729;19;20173;-77
2023/04/10 04:42:39;;;;;;;10.90;6.23;;;10.20;99.90;;;;;;7183349;19;2005281;-77
2023/04/10 04:45:14;;;;;;;12.30;6.30;;;10.50;99.90;;;;;;7286257;19;20275;-77
2023/04/10 04:48:03;;;;;;;13.90;7.40;;;10.60;99.90;;;;;;7183518;19;2004669;-77
2023/04/10 04:51:01;;;;;;;12.20;6.73;;;10.60;99.90;;;;;;7183845;19;2004840;-77
2023/04/10 04:53:46;;;;;;;12.30;6.37;;;10.70;99.90;;;;;;7286417;19;20198;-77
2023/04/10 04:56:37;;;;;;;13.90;6.60;;;10.80;99.90;;;;;;7183439;19;2004413;-77
2023/04/10 04:59:17;;;;;;;13.67;6.73;;;10.80;99.90;;;;;;7286187;19;20193;-77
2023/04/10 05:01:56;;;;;;;13.57;7.07;;;10.80;99.90;;;;;;7184007;19;2006248;-77
2023/04/10 05:04:32;;;;;;;13.73;7.13;;;10.90;99.90;;;;;;7285579;19;20190;-77
2023/04/10 05:07:16;;;;;;;17.00;6.90;;;10.90;99.90;;;;;;7285421;19;20204;-77
2023/04/10 05:10:00;;;;;;;12.37;6.97;;;10.90;99.90;;;;;;7182935;19;2004680;-77
2023/04/10 05:12:44;;;;;;;14.60;7.27;;;10.70;99.90;;;;;;7287517;19;20187;-77
2023/04/10 05:15:23;;;;;;;12.57;6.73;;;10.70;99.90;;;;;;7264071;19;20316;-76
2023/04/10 05:18:00;;;;;;;13.23;6.80;;;10.60;99.90;;;;;;7284400;19;20252;-77
2023/04/10 05:20:55;;;;;;;12.63;7.03;;;10.50;99.90;;;;;;7184373;19;2004842;-77
2023/04/10 05:23:24;;;;;;;11.67;6.87;;;10.40;99.90;;;;;;7285383;19;20641;-77
2023/04/10 05:25:59;;;;;;;12.83;6.50;;;10.40;99.90;;;;;;7284874;19;20257;-77
2023/04/10 05:28:45;;;;;;;13.07;6.30;;;10.40;99.90;;;;;;7286459;19;20208;-77
2023/04/10 05:31:22;;;;;;;10.63;6.17;;;10.40;99.90;;;;;;7262771;19;20770;-77
2023/04/10 05:34:14;;;;;;;13.10;6.63;;;10.50;99.90;;;;;;7286039;19;20530;-78
2023/04/10 05:37:08;;;;;;;11.27;6.67;;;10.60;99.90;;;;;;7181830;19;2004558;-77
2023/04/10 05:39:41;;;;;;;12.40;6.40;;;10.70;99.90;;;;;;7284665;19;20193;-77
2023/04/10 05:42:30;;;;;;;12.97;6.67;;;10.80;99.90;;;;;;7181806;19;2004840;-77
2023/04/10 05:45:18;;;;;;;11.60;6.20;;;11.00;99.90;;;;;;7283213;19;20192;-75
2023/04/10 05:48:04;;;;;;;10.93;6.40;;;11.10;99.90;;;;;;7286179;19;20196;-77
2023/04/10 05:50:59;;;;;;;13.23;6.60;;;11.30;99.90;;;;;;7181732;19;2004858;-77
2023/04/10 05:53:51;;;;;;;10.87;6.33;;;11.40;99.90;;;;;;7263924;19;20194;-77
2023/04/10 05:56:39;;;;;;;12.60;6.60;;;11.40;99.90;;;;;;7285156;19;20182;-77
2023/04/10 05:59:25;;;;;;;11.63;6.73;;;11.40;99.90;;;;;;7182529;19;2004522;-77
2023/04/10 06:01:57;;;;;;;11.70;7.00;;;11.40;99.90;;;;;;7283377;19;20186;-78
2023/04/10 06:04:23;;;;;;;12.40;6.87;;;11.30;99.90;;;;;;7283463;19;20194;-78
2023/04/10 06:06:52;;;;;;;10.33;6.00;;;11.50;99.90;;;;;;7285019;19;20195;-77
2023/04/10 06:09:17;;;;;;;12.43;6.37;;;11.40;99.90;;;;;;7307637;19;20182;-77
2023/04/10 06:11:43;;;;;;;11.00;5.80;;;11.50;99.90;;;;;;7284480;19;20261;-77
2023/04/10 06:14:09;;;;;;;11.73;6.03;;;11.50;99.90;;;;;;7283613;19;20211;-78
2023/04/10 06:16:40;;;;;;;11.07;5.97;;;11.50;99.90;;;;;;7284399;19;20185;-78
2023/04/10 06:19:06;;;;;;;10.67;5.73;;;11.50;99.90;;;;;;7282180;19;20195;-77
2023/04/10 06:21:31;;;;;;;12.53;5.67;;;11.40;99.90;;;;;;7282934;19;20193;-76
2023/04/10 06:23:57;;;;;;;12.00;6.10;;;11.30;99.90;;;;;;7283699;19;20192;-76
2023/04/10 06:26:24;;;;;;;11.23;6.17;;;11.30;99.90;;;;;;7281950;19;20257;-78
2023/04/10 06:28:50;;;;;;;12.17;6.93;;;11.40;99.90;;;;;;7286891;19;20194;-77
2023/04/10 06:31:20;;;;;;;11.23;6.00;;;11.50;99.90;;;;;;7305680;19;20753;-77
2023/04/10 06:33:48;;;;;;;10.00;5.87;;;11.60;99.90;;;;;;7283351;19;20714;-77
2023/04/10 06:36:13;;;;;;;12.17;6.23;;;11.60;99.90;;;;;;7283500;19;20638;-77
2023/04/10 06:38:45;;;;;;;12.20;6.57;;;11.60;99.90;;;;;;7281946;19;20246;-77
2023/04/10 06:41:12;;;;;;;11.43;5.90;;;11.60;99.90;;;;;;7281451;19;20193;-77
2023/04/10 06:43:38;;;;;;;10.43;5.77;;;11.50;99.90;;;;;;7281341;19;20672;-77
2023/04/10 06:46:04;;;;;;;12.20;6.60;;;11.60;99.90;;;;;;7278983;19;20203;-76
2023/04/10 06:48:31;;;;;;;9.87;5.70;;;11.50;99.90;;;;;;7282926;19;20833;-76
2023/04/10 06:50:59;;;;;;;10.43;5.67;;;11.40;99.90;;;;;;7281778;19;20514;-76
2023/04/10 06:53:25;;;;;;;11.17;6.30;;;11.40;99.90;;;;;;7281506;19;20192;-77
2023/04/10 06:55:50;;;;;;;11.00;6.27;;;11.60;99.90;;;;;;7292421;19;20789;-76
2023/04/10 06:58:16;;;;;;;9.70;6.10;;;11.70;99.90;;;;;;7311722;19;20185;-77
2023/04/10 07:00:42;;;;;;;11.00;6.00;;;11.60;99.90;;;;;;7288507;19;20186;-77
2023/04/10 07:03:08;;;;;;;12.80;6.57;;;11.60;99.90;;;;;;7287719;19;20211;-76
2023/04/10 07:05:33;;;;;;;12.43;6.80;;;11.70;99.90;;;;;;7287940;19;20223;-77
2023/04/10 07:07:59;;;;;;;11.03;6.27;;;11.80;99.90;;;;;;7289828;19;20182;-77
2023/04/10 07:10:25;;;;;;;9.47;5.83;;;11.90;99.90;;;;;;7290745;19;20190;-76
2023/04/10 07:12:50;;;;;;;9.57;5.33;;;12.10;99.90;;;;;;7292108;19;20210;-76
2023/04/10 07:15:16;;;;;;;9.30;5.90;;;12.00;99.90;;;;;;7310181;19;20183;-76
2023/04/10 07:17:42;;;;;;;9.67;5.60;;;12.20;99.90;;;;;;7288566;19;20224;-76
2023/04/10 07:20:08;;;;;;;11.90;5.83;;;12.20;99.90;;;;;;7288851;19;20191;-76
2023/04/10 07:22:34;;;;;;;12.40;5.70;;;12.20;99.90;;;;;;7289328;19;20214;-76
2023/04/10 07:25:00;;;;;;;10.27;5.90;;;12.40;99.90;;;;;;7287825;19;20260;-76
2023/04/10 07:27:26;;;;;;;9.90;6.10;;;12.40;99.90;;;;;;7288595;19;20776;-76
2023/04/10 07:29:54;;;;;;;9.47;5.37;;;12.50;99.90;;;;;;7288741;19;20178;-76
2023/04/10 07:32:20;;;;;;;10.10;5.63;;;12.70;99.90;;;;;;7302135;19;20723;-76
2023/04/10 07:34:47;;;;;;;12.33;5.93;;;12.90;99.90;;;;;;7310779;19;20191;-77
2023/04/10 07:37:12;;;;;;;9.37;5.30;;;13.10;99.90;;;;;;7287470;19;20524;-76
2023/04/10 07:39:38;;;;;;;8.93;5.07;;;13.10;99.90;;;;;;7289072;19;20281;-76
2023/04/10 07:42:04;;;;;;;9.60;5.30;;;13.10;99.90;;;;;;7288589;19;20199;-76
2023/04/10 07:44:30;;;;;;;9.60;5.67;;;12.90;99.90;;;;;;7287649;19;20212;-76
2023/04/10 07:46:56;;;;;;;10.87;5.10;;;13.00;99.90;;;;;;7288382;19;20203;-76
2023/04/10 07:49:22;;;;;;;9.93;5.20;;;13.20;99.90;;;;;;7288342;19;20560;-76
2023/04/10 07:51:47;;;;;;;9.07;4.90;;;13.10;99.90;;;;;;7309011;19;20232;-77
2023/04/10 07:54:13;;;;;;;8.80;5.13;;;13.20;99.90;;;;;;7287660;19;20188;-76
2023/04/10 07:56:39;;;;;;;10.93;5.70;;;13.40;99.90;;;;;;7287649;19;20906;-77
2023/04/10 07:59:04;;;;;;;10.97;5.93;;;13.50;99.90;;;;;;7284385;19;20666;-76
2023/04/10 08:01:30;;;;;;;10.63;6.03;;;13.50;99.90;;;;;;7287227;19;20287;-76
2023/04/10 08:03:56;;;;;;;11.03;6.20;;;13.60;99.90;;;;;;7286093;19;20193;-77
2023/04/10 08:06:22;;;;;;;12.43;7.00;;;13.60;99.90;;;;;;7286483;19;20196;-76
2023/04/10 08:08:47;;;;;;;13.63;6.90;;;13.70;99.90;;;;;;7308844;19;20293;-77
2023/04/10 08:11:30;;;;;;;13.37;7.00;;;13.90;99.90;;;;;;7285517;19;20193;-76
2023/04/10 08:14:00;;;;;;;12.10;6.50;;;13.90;99.90;;;;;;7186425;19;2004731;-76
2023/04/10 08:16:35;;;;;;;9.23;5.50;;;14.00;99.90;;;;;;7287940;19;20280;-76
2023/04/10 08:19:02;;;;;;;10.70;5.63;;;14.00;99.90;;;;;;7287179;19;20188;-76
2023/04/10 08:21:29;;;;;;;11.17;5.40;;;13.90;99.90;;;;;;7285285;19;20180;-77
2023/04/10 08:23:56;;;;;;;10.57;5.93;;;13.80;99.90;;;;;;7286215;19;20726;-77
2023/04/10 08:26:22;;;;;;;11.27;6.30;;;13.80;99.90;;;;;;7286980;19;20193;-76
2023/04/10 08:28:49;;;;;;;11.63;6.67;;;14.10;99.90;;;;;;7309354;19;20193;-77
2023/04/10 08:31:16;;;;;;;12.50;6.53;;;14.20;99.90;;;;;;7286342;19;20729;-76
2023/04/10 08:33:42;;;;;;;12.10;6.70;;;14.40;99.90;;;;;;7286554;19;20205;-76
2023/04/10 08:36:09;;;;;;;13.30;7.37;;;14.40;99.90;;;;;;7285578;19;20213;-77
2023/04/10 08:38:34;;;;;;;14.13;7.00;;;14.40;99.90;;;;;;7286465;19;20194;-76
2023/04/10 08:41:00;;;;;;;14.93;7.33;;;14.30;99.90;;;;;;7284705;19;20529;-76
2023/04/10 08:43:26;;;;;;;15.43;7.00;;;14.40;99.90;;;;;;7285375;19;20191;-76
2023/04/10 08:45:52;;;;;;;14.53;6.83;;;14.50;99.90;;;;;;7285491;19;20189;-77
2023/04/10 08:48:20;;;;;;;11.97;6.40;;;14.30;99.90;;;;;;7308396;19;20193;-76
2023/04/10 08:50:46;;;;;;;11.80;6.60;;;14.20;99.90;;;;;;7285859;19;20193;-77
2023/04/10 08:53:14;;;;;;;10.17;5.30;;;14.40;99.90;;;;;;7283535;19;20672;-76
2023/04/10 08:55:40;;;;;;;11.43;5.23;;;14.30;99.90;;;;;;7286324;19;20750;-78
2023/04/10 08:58:07;;;;;;;11.87;5.67;;;14.30;99.90;;;;;;7284432;19;20348;-77
2023/04/10 09:00:34;;;;;;;9.93;5.20;;;14.50;99.90;;;;;;7286008;19;20549;-76
2023/04/10 09:03:03;;;;;;;12.90;5.47;;;14.50;99.90;;;;;;7286249;19;20198;-77
2023/04/10 09:05:29;;;;;;;10.77;5.30;;;14.70;99.90;;;;;;7285001;19;20201;-77
2023/04/10 09:07:55;;;;;;;11.93;5.70;;;14.90;99.90;;;;;;7285254;19;20175;-76
2023/04/10 09:10:21;;;;;;;8.23;5.37;;;15.30;99.90;;;;;;7291934;19;20189;-76
2023/04/10 09:12:48;;;;;;;8.53;4.97;;;15.50;99.90;;;;;;7306356;19;20581;-77
2023/04/10 09:15:14;;;;;;;10.30;5.33;;;15.70;99.90;;;;;;7284573;19;20184;-76
2023/04/10 09:17:57;;;;;;;9.80;4.60;;;15.80;99.90;;;;;;7282852;19;20208;-77
2023/04/10 09:20:24;;;;;;;8.57;5.00;;;15.90;99.90;;;;;;7263106;19;20227;-77
2023/04/10 09:22:50;;;;;;;8.77;4.77;;;16.00;99.90;;;;;;7300841;19;20191;-75
2023/04/10 09:25:37;;;;;;;10.53;5.60;;;15.90;99.90;;;;;;7293823;19;20207;-77
2023/04/10 09:28:05;;;;;;;8.23;4.80;;;16.00;99.90;;;;;;7182584;19;2004576;-76
2023/04/10 09:30:41;;;;;;;10.20;4.70;;;16.20;99.90;;;;;;7285312;19;20213;-76
2023/04/10 09:33:26;;;;;;;9.97;4.37;;;16.50;99.90;;;;;;7285068;19;20726;-77
2023/04/10 09:35:52;;;;;;;7.90;4.50;;;16.30;99.90;;;;;;7263109;19;20179;-76
2023/04/10 09:38:22;;;;;;;7.60;4.33;;;16.30;99.90;;;;;;7304042;19;20186;-77
2023/04/10 09:40:48;;;;;;;7.90;4.50;;;16.60;99.90;;;;;;7285622;19;20200;-77
2023/04/10 09:43:21;;;;;;;8.37;4.80;;;16.90;99.90;;;;;;7284069;19;20251;-77
2023/04/10 09:45:52;;;;;;;8.03;4.70;;;17.20;99.90;;;;;;7285659;19;20683;-77
2023/04/10 09:48:18;;;;;;;7.77;4.30;;;17.00;99.90;;;;;;7284008;19;20189;-77
2023/04/10 09:50:44;;;;;;;10.10;4.63;;;16.90;99.90;;;;;;7284036;19;20260;-77
2023/04/10 09:53:15;;;;;;;9.63;4.40;;;16.80;99.90;;;;;;7284112;19;20614;-77
2023/04/10 09:55:42;;;;;;;9.23;4.63;;;16.70;99.90;;;;;;7285833;19;20190;-77
2023/04/10 09:58:09;;;;;;;8.10;4.70;;;17.10;99.90;;;;;;7283036;19;20188;-77
2023/04/10 10:00:39;;;;;;;7.87;4.00;;;17.20;99.90;;;;;;7285122;19;20687;-77
2023/04/10 10:03:08;;;;;;;8.83;4.60;;;17.70;99.90;;;;;;7283062;19;20184;-77
2023/04/10 10:05:42;;;;;;;8.10;4.47;;;18.10;99.90;;;;;;7282667;19;20193;-77
2023/04/10 10:08:10;;;;;;;6.50;3.70;;;18.60;99.90;;;;;;7284201;19;20659;-77
2023/04/10 10:10:44;;;;;;;6.07;3.60;;;19.00;99.90;;;;;;7284784;19;20192;-77
2023/04/10 10:13:16;;;;;;;6.20;3.40;;;19.00;99.90;;;;;;7283377;19;20533;-77
2023/04/10 10:16:03;;;;;;;5.23;3.03;;;20.00;99.90;;;;;;7283707;19;20230;-77
2023/04/10 10:18:37;;;;;;;6.77;3.50;;;20.30;99.90;;;;;;7182036;19;2004586;-77
2023/04/10 10:21:04;;;;;;;6.30;3.30;;;20.20;99.90;;;;;;7284832;19;20198;-77
2023/04/10 10:23:32;;;;;;;6.57;3.03;;;20.00;99.90;;;;;;7283004;19;20187;-77
2023/04/10 10:25:59;;;;;;;5.53;3.17;;;20.00;99.90;;;;;;7283137;19;20210;-77
2023/04/10 10:28:29;;;;;;;6.43;3.10;;;20.50;99.90;;;;;;7281810;19;20186;-77
2023/04/10 10:30:55;;;;;;;6.27;3.47;;;21.40;99.90;;;;;;7282737;19;20227;-77
2023/04/10 10:33:20;;;;;;;6.80;3.40;;;21.30;99.90;;;;;;7296025;19;20711;-77
2023/04/10 10:35:46;;;;;;;5.53;3.10;;;21.30;99.90;;;;;;7300839;19;20184;-78
2023/04/10 10:38:13;;;;;;;4.83;3.10;;;21.00;99.90;;;;;;7283243;19;20191;-77
2023/04/10 10:41:08;;;;;;;6.40;3.30;;;20.70;99.90;;;;;;7282287;19;20198;-77
2023/04/10 10:43:52;;;;;;;4.40;3.03;;;20.30;99.90;;;;;;7180327;19;2005015;-77
2023/04/10 10:46:21;;;;;;;6.70;3.30;;;20.00;99.90;;;;;;7284181;19;20191;-77
2023/04/10 10:48:57;;;;;;;5.37;3.30;;;19.40;99.90;;;;;;7284493;19;20200;-77
2023/04/10 10:51:22;;;;;;;5.57;3.30;;;19.10;99.90;;;;;;7261574;19;20641;-75
2023/04/10 10:53:48;;;;;;;4.80;2.90;;;19.10;99.90;;;;;;7304870;19;20186;-76
2023/04/10 10:56:35;;;;;;;5.07;3.17;;;19.10;99.90;;;;;;7282357;19;20190;-76
2023/04/10 10:59:01;;;;;;;5.87;3.57;;;18.80;99.90;;;;;;7179626;19;2004417;-76
2023/04/10 11:01:27;;;;;;;7.13;3.67;;;19.00;99.90;;;;;;7282273;19;20185;-76
2023/04/10 11:03:53;;;;;;;11.30;2.93;;;19.20;99.90;;;;;;7282268;19;20180;-76
2023/04/10 11:06:21;;;;;;;7.00;2.93;;;18.90;99.90;;;;;;7303732;19;20624;-76
2023/04/10 11:08:48;;;;;;;5.97;3.17;;;18.90;99.90;;;;;;7283133;19;20188;-76
2023/04/10 11:11:18;;;;;;;5.57;3.07;;;18.90;99.90;;;;;;7280922;19;20188;-76
2023/04/10 11:13:56;;;;;;;5.73;3.20;;;18.70;99.90;;;;;;7283508;19;20788;-76
2023/04/10 11:16:35;;;;;;;5.13;2.77;;;18.60;99.90;;;;;;7264142;19;20216;-76
2023/04/10 11:19:08;;;;;;;5.83;3.00;;;19.00;99.90;;;;;;7281482;19;20197;-76
2023/04/10 11:21:34;;;;;;;5.40;3.03;;;19.20;99.90;;;;;;7281076;19;20200;-76
2023/04/10 11:24:02;;;;;;;6.17;3.17;;;19.50;99.90;;;;;;7281990;19;20664;-77
2023/04/10 11:26:34;;;;;;;5.83;3.17;;;19.50;99.90;;;;;;7282307;19;20249;-77
2023/04/10 11:29:04;;;;;;;5.13;2.97;;;19.20;99.90;;;;;;7282442;19;20189;-76
2023/04/10 11:31:34;;;;;;;5.40;2.93;;;19.30;99.90;;;;;;7281939;19;20212;-76
2023/04/10 11:34:02;;;;;;;5.63;3.00;;;19.10;99.90;;;;;;7280429;19;20189;-77
2023/04/10 11:36:28;;;;;;;6.03;3.50;;;18.80;99.90;;;;;;7280154;19;20193;-77
2023/04/10 11:39:09;;;;;;;4.73;2.80;;;19.00;99.90;;;;;;7280891;19;20299;-77
2023/04/10 11:41:36;;;;;;;7.70;3.10;;;19.10;99.90;;;;;;7285836;19;20203;-77
2023/04/10 11:44:06;;;;;;;6.80;3.10;;;19.20;99.90;;;;;;7288080;19;20199;-77
2023/04/10 11:46:39;;;;;;;4.60;2.57;;;19.60;99.90;;;;;;7285993;19;20546;-77
2023/04/10 11:49:08;;;;;;;6.10;2.80;;;19.60;99.90;;;;;;7286635;19;20190;-77
2023/04/10 11:51:35;;;;;;;8.00;3.77;;;19.70;99.90;;;;;;7286263;19;20274;-77
2023/04/10 11:54:18;;;;;;;7.43;2.60;;;19.40;99.90;;;;;;7286915;19;20198;-78
2023/04/10 11:56:55;;;;;;;7.47;3.30;;;19.20;99.90;;;;;;7288504;19;20258;-77
2023/04/10 11:59:22;;;;;;;5.77;2.77;;;19.10;99.90;;;;;;7273852;19;20180;-76
2023/04/10 12:01:49;;;;;;;5.67;3.07;;;18.80;99.90;;;;;;7309749;19;20547;-77
2023/04/10 12:04:16;;;;;;;5.67;2.83;;;18.60;99.90;;;;;;7286779;19;20208;-77
2023/04/10 12:06:46;;;;;;;6.60;2.60;;;18.40;99.90;;;;;;7287591;19;20196;-77
2023/04/10 12:09:14;;;;;;;6.57;2.50;;;18.50;99.90;;;;;;7286945;19;20214;-77
2023/04/10 12:11:55;;;;;;;5.37;2.40;;;18.50;99.90;;;;;;7286892;19;20202;-77
2023/04/10 12:14:22;;;;;;;3.80;2.20;;;18.60;99.90;;;;;;7281079;19;20509;-77
2023/04/10 12:16:49;;;;;;;4.83;2.17;;;18.60;99.90;;;;;;7308755;19;20206;-77
2023/04/10 12:19:16;;;;;;;5.17;2.33;;;18.80;99.90;;;;;;7287573;19;20205;-77
2023/04/10 12:21:44;;;;;;;4.77;2.77;;;18.60;99.90;;;;;;7287383;19;21479;-77
2023/04/10 12:24:10;;;;;;;6.57;2.80;;;18.60;99.90;;;;;;7287434;19;20203;-77
2023/04/10 12:26:36;;;;;;;7.50;2.40;;;18.50;99.90;;;;;;7286663;19;20192;-76
2023/04/10 12:29:02;;;;;;;4.07;2.60;;;18.50;99.90;;;;;;7286095;19;20192;-77
2023/04/10 12:31:30;;;;;;;5.70;2.83;;;18.50;99.90;;;;;;7286016;19;20245;-77
2023/04/10 12:33:56;;;;;;;5.37;2.87;;;18.50;99.90;;;;;;7287883;19;20683;-76
2023/04/10 12:36:27;;;;;;;7.17;3.57;;;18.40;99.90;;;;;;7286009;19;20186;-77
2023/04/10 12:38:53;;;;;;;5.47;3.13;;;18.40;99.90;;;;;;7286226;19;20231;-76
2023/04/10 12:41:28;;;;;;;5.43;3.20;;;18.50;99.90;;;;;;7309423;19;20715;-76
2023/04/10 12:44:07;;;;;;;8.30;3.70;;;18.40;99.90;;;;;;7264945;19;20185;-77
2023/04/10 12:46:35;;;;;;;8.03;3.90;;;18.40;99.90;;;;;;7286405;19;20192;-76
2023/04/10 12:49:12;;;;;;;10.03;4.23;;;18.10;99.90;;;;;;7287011;19;20216;-77
2023/04/10 12:51:48;;;;;;;8.73;3.70;;;17.90;99.90;;;;;;7282183;19;20193;-77
2023/04/10 12:54:26;;;;;;;6.67;3.63;;;17.50;99.90;;;;;;7285845;19;20196;-77
2023/04/10 12:56:52;;;;;;;10.27;4.20;;;17.20;99.90;;;;;;7273225;19;20184;-76
2023/04/10 12:59:18;;;;;;;8.37;4.20;;;17.20;99.90;;;;;;7306339;19;20802;-76